Wheatland, Oklahoma
Current Conditions -  °F | °C
As of 8:52 AM on Monday 24 Nov 2014 (Local Time) from KOKC Reporting Station
Scattered Clouds Scattered Clouds  
Wind Chill: 35°   Ceiling: Unl
Heat Index: 42°   Visibility: 10mi
Dew Point: 24°   Wind: 13mph
Humidity: 49%   Direction: 270°W
Pressure: 29.98"   Gusts: NA
Location:  35.4°N, 97.65°W
Report Text: KOKC 241452Z 27011KT 10SM SCT200 06/M04 A2998 RMK AO2 SLP154 T00561044 53025
Loading
Personal Weather Stations






























Interactive Weather Map New forecast layout! Learn more

10-Day Weather Forecast

Advertisements
Track Severe Weather on mobile